sensor_id;sensor_type;location;lat;lon;timestamp;pressure;altitude;pressure_sealevel;temperature;humidity
59757;BME280;45631;51.962;5.974;2023-02-16T00:01:21;102247.53;;;2.86;100.00
59757;BME280;45631;51.962;5.974;2023-02-16T00:03:52;102247.56;;;2.83;100.00
59757;BME280;45631;51.962;5.974;2023-02-16T00:06:22;102249.38;;;2.75;100.00
59757;BME280;45631;51.962;5.974;2023-02-16T00:08:52;102245.91;;;2.75;100.00
59757;BME280;45631;51.962;5.974;2023-02-16T00:11:23;102246.81;;;2.72;100.00
59757;BME280;45631;51.962;5.974;2023-02-16T00:14:12;102246.81;;;2.70;100.00
59757;BME280;45631;51.962;5.974;2023-02-16T00:16:44;102252.91;;;2.68;100.00
59757;BME280;45631;51.962;5.974;2023-02-16T00:19:17;102253.78;;;2.67;100.00
59757;BME280;45631;51.962;5.974;2023-02-16T00:21:48;102246.88;;;2.64;100.00
59757;BME280;45631;51.962;5.974;2023-02-16T00:24:16;102246.03;;;2.64;100.00
59757;BME280;45631;51.962;5.974;2023-02-16T00:26:46;102245.16;;;2.65;100.00
59757;BME280;45631;51.962;5.974;2023-02-16T00:29:18;102250.38;;;2.63;100.00
59757;BME280;45631;51.962;5.974;2023-02-16T00:31:47;102245.16;;;2.62;100.00
59757;BME280;45631;51.962;5.974;2023-02-16T00:34:29;102244.31;;;2.61;100.00
59757;BME280;45631;51.962;5.974;2023-02-16T00:37:04;102239.16;;;2.58;100.00
59757;BME280;45631;51.962;5.974;2023-02-16T00:39:33;102243.47;;;2.58;100.00
59757;BME280;45631;51.962;5.974;2023-02-16T00:42:03;102241.78;;;2.57;100.00
59757;BME280;45631;51.962;5.974;2023-02-16T00:44:33;102240.88;;;2.56;100.00
59757;BME280;45631;51.962;5.974;2023-02-16T00:47:10;102238.28;;;2.56;100.00
59757;BME280;45631;51.962;5.974;2023-02-16T00:49:42;102231.38;;;2.53;100.00
59757;BME280;45631;51.962;5.974;2023-02-16T00:52:24;102238.31;;;2.54;100.00
59757;BME280;45631;51.962;5.974;2023-02-16T00:54:55;102243.53;;;2.51;100.00
59757;BME280;45631;51.962;5.974;2023-02-16T00:57:24;102242.69;;;2.49;100.00
59757;BME280;45631;51.962;5.974;2023-02-16T00:59:58;102237.50;;;2.48;100.00
59757;BME280;45631;51.962;5.974;2023-02-16T01:02:28;102237.53;;;2.46;100.00
59757;BME280;45631;51.962;5.974;2023-02-16T01:04:56;102234.97;;;2.43;100.00
59757;BME280;45631;51.962;5.974;2023-02-16T01:07:26;102227.13;;;2.46;100.00
59757;BME280;45631;51.962;5.974;2023-02-16T01:10:11;102230.63;;;2.44;100.00
59757;BME280;45631;51.962;5.974;2023-02-16T01:12:57;102234.97;;;2.43;100.00
59757;BME280;45631;51.962;5.974;2023-02-16T01:15:25;102232.34;;;2.45;100.00
59757;BME280;45631;51.962;5.974;2023-02-16T01:17:53;102225.44;;;2.42;100.00
59757;BME280;45631;51.962;5.974;2023-02-16T01:20:23;102228.06;;;2.39;100.00
59757;BME280;45631;51.962;5.974;2023-02-16T01:22:53;102231.56;;;2.35;100.00
59757;BME280;45631;51.962;5.974;2023-02-16T01:25:21;102225.53;;;2.30;100.00
59757;BME280;45631;51.962;5.974;2023-02-16T01:27:49;102229.00;;;2.29;100.00
59757;BME280;45631;51.962;5.974;2023-02-16T01:30:19;102217.81;;;2.24;100.00
59757;BME280;45631;51.962;5.974;2023-02-16T01:32:48;102219.56;;;2.22;100.00
59757;BME280;45631;51.962;5.974;2023-02-16T01:35:20;102225.66;;;2.16;100.00
59757;BME280;45631;51.962;5.974;2023-02-16T01:37:49;102227.41;;;2.12;100.00
59757;BME280;45631;51.962;5.974;2023-02-16T01:40:27;102219.69;;;2.08;100.00
59757;BME280;45631;51.962;5.974;2023-02-16T01:43:00;102218.78;;;2.10;100.00
59757;BME280;45631;51.962;5.974;2023-02-16T01:45:33;102217.13;;;2.05;100.00
59757;BME280;45631;51.962;5.974;2023-02-16T01:48:04;102211.03;;;2.06;100.00
59757;BME280;45631;51.962;5.974;2023-02-16T01:50:41;102214.50;;;2.03;100.00
59757;BME280;45631;51.962;5.974;2023-02-16T01:53:17;102214.53;;;2.00;100.00
59757;BME280;45631;51.962;5.974;2023-02-16T01:55:54;102205.03;;;1.97;100.00
59757;BME280;45631;51.962;5.974;2023-02-16T01:58:33;102197.25;;;1.96;100.00
59757;BME280;45631;51.962;5.974;2023-02-16T02:01:38;102187.75;;;1.95;100.00
59757;BME280;45631;51.962;5.974;2023-02-16T02:04:25;102179.94;;;1.96;100.00
59757;BME280;45631;51.962;5.974;2023-02-16T02:07:18;102173.91;;;1.94;100.00
59757;BME280;45631;51.962;5.974;2023-02-16T02:09:56;102185.19;;;1.92;100.00
59757;BME280;45631;51.962;5.974;2023-02-16T02:12:32;102193.88;;;1.88;100.00
59757;BME280;45631;51.962;5.974;2023-02-16T02:15:02;102193.00;;;1.87;100.00
59757;BME280;45631;51.962;5.974;2023-02-16T02:17:30;102195.59;;;1.84;100.00
59757;BME280;45631;51.962;5.974;2023-02-16T02:20:06;102190.44;;;1.82;100.00
59757;BME280;45631;51.962;5.974;2023-02-16T02:23:00;102180.97;;;1.77;100.00
59757;BME280;45631;51.962;5.974;2023-02-16T02:29:29;102177.53;;;1.73;100.00
59757;BME280;45631;51.962;5.974;2023-02-16T02:32:07;102170.63;;;1.72;100.00
59757;BME280;45631;51.962;5.974;2023-02-16T02:34:52;102187.03;;;1.74;100.00
59757;BME280;45631;51.962;5.974;2023-02-16T02:37:28;102178.44;;;1.71;100.00
59757;BME280;45631;51.962;5.974;2023-02-16T02:40:04;102174.09;;;1.69;100.00
59757;BME280;45631;51.962;5.974;2023-02-16T02:42:40;102173.22;;;1.69;100.00
59757;BME280;45631;51.962;5.974;2023-02-16T02:45:15;102173.22;;;1.69;100.00
59757;BME280;45631;51.962;5.974;2023-02-16T02:47:46;102171.50;;;1.69;100.00
59757;BME280;45631;51.962;5.974;2023-02-16T02:50:33;102168.03;;;1.69;100.00
59757;BME280;45631;51.962;5.974;2023-02-16T02:53:06;102165.47;;;1.71;100.00
59757;BME280;45631;51.962;5.974;2023-02-16T02:55:37;102174.06;;;1.74;100.00
59757;BME280;45631;51.962;5.974;2023-02-16T02:58:26;102153.28;;;1.76;100.00
59757;BME280;45631;51.962;5.974;2023-02-16T03:01:17;102158.50;;;1.77;100.00
59757;BME280;45631;51.962;5.974;2023-02-16T03:03:48;102160.22;;;1.77;100.00
59757;BME280;45631;51.962;5.974;2023-02-16T03:06:20;102157.59;;;1.78;100.00
59757;BME280;45631;51.962;5.974;2023-02-16T03:08:54;102154.13;;;1.81;100.00
59757;BME280;45631;51.962;5.974;2023-02-16T03:11:26;102151.53;;;1.81;100.00
59757;BME280;45631;51.962;5.974;2023-02-16T03:14:15;102145.44;;;1.86;100.00
59757;BME280;45631;51.962;5.974;2023-02-16T03:16:48;102146.31;;;1.87;100.00
59757;BME280;45631;51.962;5.974;2023-02-16T03:19:38;102140.22;;;1.88;100.00
59757;BME280;45631;51.962;5.974;2023-02-16T03:22:24;102136.75;;;1.89;100.00
59757;BME280;45631;51.962;5.974;2023-02-16T03:25:10;102141.94;;;1.89;100.00
59757;BME280;45631;51.962;5.974;2023-02-16T03:27:57;102145.41;;;1.88;100.00
59757;BME280;45631;51.962;5.974;2023-02-16T03:30:45;102147.16;;;1.89;100.00
59757;BME280;45631;51.962;5.974;2023-02-16T03:33:16;102141.97;;;1.88;100.00
59757;BME280;45631;51.962;5.974;2023-02-16T03:35:45;102138.53;;;1.87;100.00
59757;BME280;45631;51.962;5.974;2023-02-16T03:38:13;102142.81;;;1.88;100.00
59757;BME280;45631;51.962;5.974;2023-02-16T03:40:44;102137.66;;;1.86;100.00
59757;BME280;45631;51.962;5.974;2023-02-16T03:43:14;102141.13;;;1.84;100.00
59757;BME280;45631;51.962;5.974;2023-02-16T03:45:45;102138.53;;;1.82;100.00
59757;BME280;45631;51.962;5.974;2023-02-16T03:48:13;102141.13;;;1.84;100.00
59757;BME280;45631;51.962;5.974;2023-02-16T03:50:42;102137.59;;;1.94;100.00
59757;BME280;45631;51.962;5.974;2023-02-16T03:53:11;102130.72;;;1.90;100.00
59757;BME280;45631;51.962;5.974;2023-02-16T03:55:41;102134.13;;;1.95;100.00
59757;BME280;45631;51.962;5.974;2023-02-16T03:58:13;102139.34;;;1.94;100.00
59757;BME280;45631;51.962;5.974;2023-02-16T04:00:42;102135.88;;;1.92;100.00
59757;BME280;45631;51.962;5.974;2023-02-16T04:03:10;102134.19;;;1.88;100.00
59757;BME280;45631;51.962;5.974;2023-02-16T04:05:39;102130.75;;;1.84;100.00
59757;BME280;45631;51.962;5.974;2023-02-16T04:08:11;102134.25;;;1.80;100.00
59757;BME280;45631;51.962;5.974;2023-02-16T04:10:39;102138.63;;;1.76;100.00
59757;BME280;45631;51.962;5.974;2023-02-16T04:13:07;102139.50;;;1.72;100.00
59757;BME280;45631;51.962;5.974;2023-02-16T04:15:35;102137.78;;;1.71;100.00
59757;BME280;45631;51.962;5.974;2023-02-16T04:18:03;102134.31;;;1.74;100.00
59757;BME280;45631;51.962;5.974;2023-02-16T04:20:32;102142.94;;;1.74;100.00
59757;BME280;45631;51.962;5.974;2023-02-16T04:23:01;102131.72;;;1.74;100.00
59757;BME280;45631;51.962;5.974;2023-02-16T04:25:34;102145.56;;;1.71;100.00
59757;BME280;45631;51.962;5.974;2023-02-16T04:28:02;102150.78;;;1.68;100.00
59757;BME280;45631;51.962;5.974;2023-02-16T04:30:30;102149.06;;;1.67;100.00
59757;BME280;45631;51.962;5.974;2023-02-16T04:32:59;102152.50;;;1.67;100.00
59757;BME280;45631;51.962;5.974;2023-02-16T04:35:27;102159.41;;;1.70;100.00
59757;BME280;45631;51.962;5.974;2023-02-16T04:37:55;102150.72;;;1.73;100.00
59757;BME280;45631;51.962;5.974;2023-02-16T04:40:23;102154.16;;;1.73;100.00
59757;BME280;45631;51.962;5.974;2023-02-16T04:42:52;102143.81;;;1.76;100.00
59757;BME280;45631;51.962;5.974;2023-02-16T04:45:20;102154.16;;;1.79;100.00
59757;BME280;45631;51.962;5.974;2023-02-16T04:47:48;102155.00;;;1.81;100.00
59757;BME280;45631;51.962;5.974;2023-02-16T04:50:16;102142.88;;;1.83;100.00
59757;BME280;45631;51.962;5.974;2023-02-16T04:52:44;102142.00;;;1.86;100.00
59757;BME280;45631;51.962;5.974;2023-02-16T04:55:13;102139.34;;;1.89;100.00
59757;BME280;45631;51.962;5.974;2023-02-16T04:57:41;102124.69;;;1.90;100.00
59757;BME280;45631;51.962;5.974;2023-02-16T05:00:12;102136.75;;;1.94;100.00
59757;BME280;45631;51.962;5.974;2023-02-16T05:02:40;102142.78;;;1.96;100.00
59757;BME280;45631;51.962;5.974;2023-02-16T05:05:09;102136.69;;;1.98;100.00
59757;BME280;45631;51.962;5.974;2023-02-16T05:07:37;102139.25;;;2.01;100.00
59757;BME280;45631;51.962;5.974;2023-02-16T05:10:06;102140.09;;;2.05;100.00
59757;BME280;45631;51.962;5.974;2023-02-16T05:12:34;102132.28;;;2.08;100.00
59757;BME280;45631;51.962;5.974;2023-02-16T05:15:21;102140.94;;;2.10;100.00
59757;BME280;45631;51.962;5.974;2023-02-16T05:17:49;102141.72;;;2.15;100.00
59757;BME280;45631;51.962;5.974;2023-02-16T05:20:17;102139.94;;;2.20;100.00
59757;BME280;45631;51.962;5.974;2023-02-16T05:22:47;102136.47;;;2.23;100.00
59757;BME280;45631;51.962;5.974;2023-02-16T05:25:16;102138.19;;;2.26;100.00
59757;BME280;45631;51.962;5.974;2023-02-16T05:27:44;102126.88;;;2.30;100.00
59757;BME280;45631;51.962;5.974;2023-02-16T05:30:13;102131.16;;;2.34;100.00
59757;BME280;45631;51.962;5.974;2023-02-16T05:32:42;102138.06;;;2.38;100.00
59757;BME280;45631;51.962;5.974;2023-02-16T05:35:10;102141.47;;;2.43;100.00
59757;BME280;45631;51.962;5.974;2023-02-16T05:37:39;102131.00;;;2.51;100.00
59757;BME280;45631;51.962;5.974;2023-02-16T05:40:09;102127.28;;;2.72;100.00
59757;BME280;45631;51.962;5.974;2023-02-16T05:42:37;102122.09;;;2.72;100.00
59757;BME280;45631;51.962;5.974;2023-02-16T05:45:06;102122.88;;;2.80;100.00
59757;BME280;45631;51.962;5.974;2023-02-16T05:47:34;102122.88;;;2.79;100.00
59757;BME280;45631;51.962;5.974;2023-02-16T05:50:04;102132.38;;;2.81;100.00
59757;BME280;45631;51.962;5.974;2023-02-16T05:52:33;102128.84;;;2.87;100.00
59757;BME280;45631;51.962;5.974;2023-02-16T05:55:01;102121.00;;;2.90;100.00
59757;BME280;45631;51.962;5.974;2023-02-16T05:57:29;102123.56;;;2.95;100.00
59757;BME280;45631;51.962;5.974;2023-02-16T06:00:00;102114.88;;;2.96;100.00
59757;BME280;45631;51.962;5.974;2023-02-16T06:02:29;102111.34;;;3.00;100.00
59757;BME280;45631;51.962;5.974;2023-02-16T06:04:57;102106.84;;;3.14;100.00
59757;BME280;45631;51.962;5.974;2023-02-16T06:07:26;102114.53;;;3.22;100.00
59757;BME280;45631;51.962;5.974;2023-02-16T06:09:54;102118.88;;;3.20;100.00
59757;BME280;45631;51.962;5.974;2023-02-16T06:12:23;102121.47;;;3.20;100.00
59757;BME280;45631;51.962;5.974;2023-02-16T06:14:51;102110.16;;;3.24;100.00
59757;BME280;45631;51.962;5.974;2023-02-16T06:17:19;102109.06;;;3.39;100.00
59757;BME280;45631;51.962;5.974;2023-02-16T06:19:47;102115.19;;;3.35;100.00
59757;BME280;45631;51.962;5.974;2023-02-16T06:22:15;102115.22;;;3.33;100.00
59757;BME280;45631;51.962;5.974;2023-02-16T06:24:45;102115.22;;;3.33;100.00
59757;BME280;45631;51.962;5.974;2023-02-16T06:27:13;102114.25;;;3.41;100.00
59757;BME280;45631;51.962;5.974;2023-02-16T06:29:41;102107.25;;;3.46;100.00
59757;BME280;45631;51.962;5.974;2023-02-16T06:32:09;102101.22;;;3.42;100.00
59757;BME280;45631;51.962;5.974;2023-02-16T06:34:37;102124.63;;;3.42;100.00
59757;BME280;45631;51.962;5.974;2023-02-16T06:37:05;102134.19;;;3.42;100.00
59757;BME280;45631;51.962;5.974;2023-02-16T06:39:33;102135.06;;;3.41;100.00
59757;BME280;45631;51.962;5.974;2023-02-16T06:42:03;102137.63;;;3.44;100.00
59757;BME280;45631;51.962;5.974;2023-02-16T06:44:31;102136.69;;;3.46;100.00
59757;BME280;45631;51.962;5.974;2023-02-16T06:46:59;102138.44;;;3.47;100.00
59757;BME280;45631;51.962;5.974;2023-02-16T06:49:27;102134.09;;;3.48;100.00
59757;BME280;45631;51.962;5.974;2023-02-16T06:51:56;102131.47;;;3.49;100.00
59757;BME280;45631;51.962;5.974;2023-02-16T06:54:24;102118.41;;;3.52;100.00
59757;BME280;45631;51.962;5.974;2023-02-16T06:56:52;102125.31;;;3.55;100.00
59757;BME280;45631;51.962;5.974;2023-02-16T06:59:21;102132.25;;;3.56;100.00
59757;BME280;45631;51.962;5.974;2023-02-16T07:01:49;102138.25;;;3.60;100.00
59757;BME280;45631;51.962;5.974;2023-02-16T07:04:18;102141.66;;;3.63;100.00
59757;BME280;45631;51.962;5.974;2023-02-16T07:06:46;102133.84;;;3.65;100.00
59757;BME280;45631;51.962;5.974;2023-02-16T07:09:14;102137.19;;;3.71;100.00
59757;BME280;45631;51.962;5.974;2023-02-16T07:11:45;102130.22;;;3.73;100.00
59757;BME280;45631;51.962;5.974;2023-02-16T07:14:13;102136.28;;;3.76;100.00
59757;BME280;45631;51.962;5.974;2023-02-16T07:16:43;102133.63;;;3.77;100.00
59757;BME280;45631;51.962;5.974;2023-02-16T07:19:11;102129.25;;;3.81;100.00
59757;BME280;45631;51.962;5.974;2023-02-16T07:21:39;102126.50;;;3.88;100.00
59757;BME280;45631;51.962;5.974;2023-02-16T07:24:07;102125.41;;;4.02;100.00
59757;BME280;45631;51.962;5.974;2023-02-16T07:26:35;102132.38;;;4.01;100.00
59757;BME280;45631;51.962;5.974;2023-02-16T07:29:04;102141.00;;;4.05;100.00
59757;BME280;45631;51.962;5.974;2023-02-16T07:31:32;102135.81;;;4.05;100.00
59757;BME280;45631;51.962;5.974;2023-02-16T07:34:01;102130.53;;;4.08;100.00
59757;BME280;45631;51.962;5.974;2023-02-16T07:36:33;102129.59;;;4.12;100.00
59757;BME280;45631;51.962;5.974;2023-02-16T07:39:01;102126.97;;;4.14;100.00
59757;BME280;45631;51.962;5.974;2023-02-16T07:41:29;102136.44;;;4.18;100.00
59757;BME280;45631;51.962;5.974;2023-02-16T07:43:57;102131.13;;;4.22;100.00
59757;BME280;45631;51.962;5.974;2023-02-16T07:46:25;102132.78;;;4.28;100.00
59757;BME280;45631;51.962;5.974;2023-02-16T07:48:54;102134.50;;;4.29;100.00
59757;BME280;45631;51.962;5.974;2023-02-16T07:51:24;102138.72;;;4.36;100.00
59757;BME280;45631;51.962;5.974;2023-02-16T07:53:53;102137.88;;;4.34;100.00
59757;BME280;45631;51.962;5.974;2023-02-16T07:56:24;102145.66;;;4.36;100.00
59757;BME280;45631;51.962;5.974;2023-02-16T07:58:52;102147.16;;;4.49;100.00
59757;BME280;45631;51.962;5.974;2023-02-16T08:01:24;102145.44;;;4.48;100.00
59757;BME280;45631;51.962;5.974;2023-02-16T08:03:53;102155.81;;;4.51;100.00
59757;BME280;45631;51.962;5.974;2023-02-16T08:06:22;102160.06;;;4.55;100.00
59757;BME280;45631;51.962;5.974;2023-02-16T08:08:51;102153.03;;;4.59;100.00
59757;BME280;45631;51.962;5.974;2023-02-16T08:11:21;102158.19;;;4.64;100.00
59757;BME280;45631;51.962;5.974;2023-02-16T08:13:50;102159.81;;;4.69;100.00
59757;BME280;45631;51.962;5.974;2023-02-16T08:16:19;102173.63;;;4.74;100.00
59757;BME280;45631;51.962;5.974;2023-02-16T08:18:48;102159.59;;;4.80;100.00
59757;BME280;45631;51.962;5.974;2023-02-16T08:21:19;102168.19;;;4.85;100.00
59757;BME280;45631;51.962;5.974;2023-02-16T08:23:54;102177.59;;;4.93;100.00
59757;BME280;45631;51.962;5.974;2023-02-16T08:26:25;102174.97;;;4.94;100.00
59757;BME280;45631;51.962;5.974;2023-02-16T08:28:56;102176.53;;;5.01;100.00
59757;BME280;45631;51.962;5.974;2023-02-16T08:31:27;102185.97;;;5.07;100.00
59757;BME280;45631;51.962;5.974;2023-02-16T08:33:58;102177.19;;;5.11;100.00
59757;BME280;45631;51.962;5.974;2023-02-16T08:36:28;102170.94;;;5.20;100.00
59757;BME280;45631;51.962;5.974;2023-02-16T08:39:00;102167.34;;;5.25;100.00
59757;BME280;45631;51.962;5.974;2023-02-16T08:41:31;102180.34;;;5.27;100.00
59757;BME280;45631;51.962;5.974;2023-02-16T08:44:01;102185.59;;;5.25;100.00
59757;BME280;45631;51.962;5.974;2023-02-16T08:46:30;102186.44;;;5.28;100.00
59757;BME280;45631;51.962;5.974;2023-02-16T08:49:00;102184.59;;;5.31;100.00
59757;BME280;45631;51.962;5.974;2023-02-16T08:51:30;102179.34;;;5.33;100.00
59757;BME280;45631;51.962;5.974;2023-02-16T08:54:02;102165.38;;;5.35;100.00
59757;BME280;45631;51.962;5.974;2023-02-16T08:56:31;102167.13;;;5.36;100.00
59757;BME280;45631;51.962;5.974;2023-02-16T08:59:00;102169.59;;;5.41;100.00
59757;BME280;45631;51.962;5.974;2023-02-16T09:01:28;102172.94;;;5.48;100.00
59757;BME280;45631;51.962;5.974;2023-02-16T09:03:56;102167.72;;;5.48;100.00
59757;BME280;45631;51.962;5.974;2023-02-16T09:06:24;102172.09;;;5.47;100.00
59757;BME280;45631;51.962;5.974;2023-02-16T09:08:56;102172.91;;;5.51;100.00
59757;BME280;45631;51.962;5.974;2023-02-16T09:11:27;102175.38;;;5.55;100.00
59757;BME280;45631;51.962;5.974;2023-02-16T09:13:59;102177.16;;;5.55;100.00
59757;BME280;45631;51.962;5.974;2023-02-16T09:16:28;102183.06;;;5.62;100.00
59757;BME280;45631;51.962;5.974;2023-02-16T09:19:00;102181.28;;;5.64;100.00
59757;BME280;45631;51.962;5.974;2023-02-16T09:21:29;102182.97;;;5.66;100.00
59757;BME280;45631;51.962;5.974;2023-02-16T09:24:01;102187.31;;;5.67;100.00
59757;BME280;45631;51.962;5.974;2023-02-16T09:26:33;102195.69;;;5.80;100.00
59757;BME280;45631;51.962;5.974;2023-02-16T09:29:02;102195.75;;;5.79;100.00
59757;BME280;45631;51.962;5.974;2023-02-16T09:31:32;102200.03;;;5.81;100.00
59757;BME280;45631;51.962;5.974;2023-02-16T09:34:03;102195.63;;;5.83;100.00
59757;BME280;45631;51.962;5.974;2023-02-16T09:36:32;102198.13;;;5.88;100.00
59757;BME280;45631;51.962;5.974;2023-02-16T09:39:00;102194.66;;;5.87;100.00
59757;BME280;45631;51.962;5.974;2023-02-16T09:41:39;102198.06;;;5.91;100.00
59757;BME280;45631;51.962;5.974;2023-02-16T09:44:14;102200.53;;;5.99;100.00
59757;BME280;45631;51.962;5.974;2023-02-16T09:46:47;102204.03;;;5.96;100.00
59757;BME280;45631;51.962;5.974;2023-02-16T09:49:23;102190.09;;;5.99;100.00
59757;BME280;45631;51.962;5.974;2023-02-16T09:51:59;102194.34;;;6.03;100.00
59757;BME280;45631;51.962;5.974;2023-02-16T09:54:38;102196.88;;;6.06;100.00
59757;BME280;45631;51.962;5.974;2023-02-16T09:57:18;102187.22;;;6.08;100.00
59757;BME280;45631;51.962;5.974;2023-02-16T09:59:51;102193.19;;;6.13;100.00
59757;BME280;45631;51.962;5.974;2023-02-16T10:02:33;102181.84;;;6.14;100.00
59757;BME280;45631;51.962;5.974;2023-02-16T10:05:15;102188.81;;;6.15;100.00
59757;BME280;45631;51.962;5.974;2023-02-16T10:08:04;102189.56;;;6.19;100.00
59757;BME280;45631;51.962;5.974;2023-02-16T10:10:39;102199.88;;;6.25;100.00
59757;BME280;45631;51.962;5.974;2023-02-16T10:13:21;102190.22;;;6.29;100.00
59757;BME280;45631;51.962;5.974;2023-02-16T10:15:51;102184.94;;;6.30;100.00
59757;BME280;45631;51.962;5.974;2023-02-16T10:18:25;102179.50;;;6.38;100.00
59757;BME280;45631;51.962;5.974;2023-02-16T10:20:58;102180.28;;;6.41;100.00
59757;BME280;45631;51.962;5.974;2023-02-16T10:23:43;102177.63;;;6.43;100.00
59757;BME280;45631;51.962;5.974;2023-02-16T10:26:16;102173.94;;;6.52;100.00
59757;BME280;45631;51.962;5.974;2023-02-16T10:28:49;102172.06;;;6.55;100.00
59757;BME280;45631;51.962;5.974;2023-02-16T10:31:22;102173.78;;;6.56;100.00
59757;BME280;45631;51.962;5.974;2023-02-16T10:34:11;102171.09;;;6.59;100.00
59757;BME280;45631;51.962;5.974;2023-02-16T10:37:07;102172.16;;;6.52;100.00
59757;BME280;45631;51.962;5.974;2023-02-16T10:39:41;102186.81;;;6.58;100.00
59757;BME280;45631;51.962;5.974;2023-02-16T10:42:17;102180.81;;;6.54;100.00
59757;BME280;45631;51.962;5.974;2023-02-16T10:44:53;102183.31;;;6.59;100.00
59757;BME280;45631;51.962;5.974;2023-02-16T10:47:30;102185.13;;;6.55;100.00
59757;BME280;45631;51.962;5.974;2023-02-16T10:49:59;102185.13;;;6.55;100.00
59757;BME280;45631;51.962;5.974;2023-02-16T10:52:30;102186.72;;;6.61;100.00
59757;BME280;45631;51.962;5.974;2023-02-16T10:55:00;102184.94;;;6.63;100.00
59757;BME280;45631;51.962;5.974;2023-02-16T10:57:32;102185.78;;;6.64;100.00
59757;BME280;45631;51.962;5.974;2023-02-16T11:00:04;102187.41;;;6.68;100.00
59757;BME280;45631;51.962;5.974;2023-02-16T11:02:35;102192.78;;;6.63;100.00
59757;BME280;45631;51.962;5.974;2023-02-16T11:05:29;102186.81;;;6.58;100.00
59757;BME280;45631;51.962;5.974;2023-02-16T11:07:59;102191.09;;;6.60;100.00
59757;BME280;45631;51.962;5.974;2023-02-16T11:10:37;102190.13;;;6.65;100.00
59757;BME280;45631;51.962;5.974;2023-02-16T11:13:06;102180.50;;;6.67;100.00
59757;BME280;45631;51.962;5.974;2023-02-16T11:15:37;102178.13;;;6.57;100.00
59757;BME280;45631;51.962;5.974;2023-02-16T11:18:17;102164.38;;;6.51;100.00
59757;BME280;45631;51.962;5.974;2023-02-16T11:20:53;102169.53;;;6.52;100.00
59757;BME280;45631;51.962;5.974;2023-02-16T11:23:23;102164.22;;;6.55;100.00
59757;BME280;45631;51.962;5.974;2023-02-16T11:25:54;102173.94;;;6.50;100.00
59757;BME280;45631;51.962;5.974;2023-02-16T11:28:28;102179.16;;;6.50;100.00
59757;BME280;45631;51.962;5.974;2023-02-16T11:31:04;102180.00;;;6.52;100.00
59757;BME280;45631;51.962;5.974;2023-02-16T11:33:37;102187.09;;;6.47;100.00
59757;BME280;45631;51.962;5.974;2023-02-16T11:36:18;102186.16;;;6.50;100.00
59757;BME280;45631;51.962;5.974;2023-02-16T11:39:00;102184.38;;;6.52;100.00
59757;BME280;45631;51.962;5.974;2023-02-16T11:41:29;102193.97;;;6.51;100.00
59757;BME280;45631;51.962;5.974;2023-02-16T11:44:00;102180.09;;;6.49;100.00
59757;BME280;45631;51.962;5.974;2023-02-16T11:46:37;102177.28;;;6.55;100.00
59757;BME280;45631;51.962;5.974;2023-02-16T11:49:30;102164.41;;;6.49;100.00
59757;BME280;45631;51.962;5.974;2023-02-16T11:51:59;102167.91;;;6.48;100.00
59757;BME280;45631;51.962;5.974;2023-02-16T11:54:30;102161.50;;;6.60;100.00
59757;BME280;45631;51.962;5.974;2023-02-16T11:57:04;102169.38;;;6.58;100.00
59757;BME280;45631;51.962;5.974;2023-02-16T11:59:36;102171.97;;;6.58;100.00
59757;BME280;45631;51.962;5.974;2023-02-16T12:02:34;102169.34;;;6.60;100.00
59757;BME280;45631;51.962;5.974;2023-02-16T12:05:22;102151.94;;;6.59;100.00
59757;BME280;45631;51.962;5.974;2023-02-16T12:08:06;102151.06;;;6.58;100.00
59757;BME280;45631;51.962;5.974;2023-02-16T12:10:38;102148.25;;;6.66;100.00
59757;BME280;45631;51.962;5.974;2023-02-16T12:13:16;102141.41;;;6.62;100.00
59757;BME280;45631;51.962;5.974;2023-02-16T12:15:51;102142.81;;;6.74;100.00
59757;BME280;45631;51.962;5.974;2023-02-16T12:18:29;102134.78;;;6.80;100.00
59757;BME280;45631;51.962;5.974;2023-02-16T12:21:11;102140.66;;;6.88;100.00
59757;BME280;45631;51.962;5.974;2023-02-16T12:23:54;102128.03;;;7.03;100.00
59757;BME280;45631;51.962;5.974;2023-02-16T12:26:35;102130.47;;;7.09;100.00
59757;BME280;45631;51.962;5.974;2023-02-16T12:29:22;102126.09;;;7.09;100.00
59757;BME280;45631;51.962;5.974;2023-02-16T12:31:59;102119.03;;;7.13;100.00
59757;BME280;45631;51.962;5.974;2023-02-16T12:34:41;102123.06;;;7.23;100.00
59757;BME280;45631;51.962;5.974;2023-02-16T12:37:20;102103.94;;;7.21;100.00
59757;BME280;45631;51.962;5.974;2023-02-16T12:39:58;102099.44;;;7.25;100.00
59757;BME280;45631;51.962;5.974;2023-02-16T12:42:46;102098.28;;;7.35;100.00
59757;BME280;45631;51.962;5.974;2023-02-16T12:45:20;102100.69;;;7.41;100.00
59757;BME280;45631;51.962;5.974;2023-02-16T12:47:53;102089.97;;;7.49;100.00
59757;BME280;45631;51.962;5.974;2023-02-16T12:50:27;102089.63;;;7.60;100.00
59757;BME280;45631;51.962;5.974;2023-02-16T12:52:58;102085.88;;;7.67;100.00
59757;BME280;45631;51.962;5.974;2023-02-16T12:55:32;102072.13;;;7.87;100.00
59757;BME280;45631;51.962;5.974;2023-02-16T12:58:09;102068.59;;;8.13;100.00
59757;BME280;45631;51.962;5.974;2023-02-16T13:00:43;102064.44;;;8.33;100.00
59757;BME280;45631;51.962;5.974;2023-02-16T13:03:24;102059.16;;;8.58;100.00
59757;BME280;45631;51.962;5.974;2023-02-16T13:06:03;102053.22;;;8.53;100.00
59757;BME280;45631;51.962;5.974;2023-02-16T13:08:39;102044.28;;;8.59;100.00
59757;BME280;45631;51.962;5.974;2023-02-16T13:11:16;102040.09;;;8.53;100.00
59757;BME280;45631;51.962;5.974;2023-02-16T13:13:47;102033.81;;;8.59;100.00
59757;BME280;45631;51.962;5.974;2023-02-16T13:16:20;102038.34;;;8.54;100.00
59757;BME280;45631;51.962;5.974;2023-02-16T13:18:57;102031.56;;;8.48;100.00
59757;BME280;45631;51.962;5.974;2023-02-16T13:21:53;102028.59;;;8.57;100.00
59757;BME280;45631;51.962;5.974;2023-02-16T13:24:42;102023.75;;;8.70;100.00